Flight Track Log - Related Links

Times and Time Zones

All times are in EST time to prevent confusion due to time zone crossing. See the EGC258 flight status page for this flight to view local times or setup timezone preferences in your user account.

Time Position Orientation Groundspeed Altitude Reporting Facility
EST Latitude Longitude Course Direction KTS MPH feet Rate Location/Type
Wed 06:14:18 PM 26.1475 -81.8553 286° West 180 207 4,800  Level Miami Center
Wed 06:15:18 PM 26.1658 -81.9256 286° West 212 244 7,400 2,700 Climbing Miami Center
Wed 06:16:18 PM 26.1883 -82.0028 288° West 251 289 10,200 2,800 Climbing Miami Center
Wed 06:17:18 PM 26.2108 -82.0711 290° West 258 297 13,000 2,800 Climbing Miami Center
Wed 06:18:18 PM 26.2586 -82.1356 310° West 264 304 15,800 2,700 Climbing Miami Center
Wed 06:19:18 PM 26.3083 -82.2028 310° West 278 320 18,400 2,500 Climbing Miami Center
Wed 06:20:18 PM 26.3583 -82.2628 313° West 278 320 20,800 2,250 Climbing Miami Center
Wed 06:21:18 PM 26.4211 -82.3189 321° Northwest 278 320 22,900 2,050 Climbing Miami Center
Wed 06:22:18 PM 26.4989 -82.3550 337° Northwest 284 327 24,900 2,050 Climbing Miami Center
Wed 06:23:18 PM 26.5747 -82.3911 337° Northwest 289 333 27,000 1,750 Climbing Miami Center
Wed 06:24:18 PM 26.6525 -82.4342 334° Northwest 301 346 28,400 1,450 Climbing Miami Center
Wed 06:25:18 PM 26.7342 -82.4778 335° Northwest 301 346 29,900 1,500 Climbing Miami Center
Wed 06:26:18 PM 26.8142 -82.5164 337° Northwest 301 346 31,400 1,550 Climbing Miami Center
Wed 06:27:18 PM 26.8919 -82.5575 335° Northwest 301 346 33,000 1,500 Climbing Miami Center
Wed 06:28:18 PM 26.9653 -82.5983 334° Northwest 301 346 34,400 1,400 Climbing Miami Center
Wed 06:29:18 PM 27.0411 -82.6392 334° Northwest 296 341 35,800 1,450 Climbing Miami Center
Wed 06:30:18 PM 27.1147 -82.6756 336° Northwest 296 341 37,300 1,450 Climbing Miami Center
Wed 06:31:18 PM 27.1753 -82.7275 323° Northwest 291 335 38,700 1,300 Climbing Miami Center
Wed 06:32:18 PM 27.2444 -82.7661 334° Northwest 275 316 39,900 650 Climbing Miami Center
Wed 06:33:18 PM 27.3142 -82.8000 337° Northwest 281 323 40,000 50 Climbing Miami Center
Wed 06:34:18 PM 27.3939 -82.8392 336° Northwest 305 351 40,000  Level Miami Center
Wed 06:35:18 PM 27.4939 -82.8911 335° Northwest 339 390 40,000  Level Miami Center
Wed 06:36:18 PM 27.5817 -82.9356 336° Northwest 346 398 40,000  Level Miami Center
Wed 06:37:18 PM 27.6675 -82.9800 335° Northwest 346 398 40,000  Level Miami Center
Wed 06:39:26 PM 27.8472 -83.0661 337° Northwest 351 404 40,000  Level Jacksonville Center
Wed 06:40:27 PM 27.9411 -83.1017 342° North 351 404 40,000  Level Jacksonville Center
Wed 06:41:27 PM 28.0369 -83.1183 351° North 351 404 40,000  Level Jacksonville Center
Wed 06:42:26 PM 28.1372 -83.1397 349° North 351 404 40,000  Level Jacksonville Center
Wed 06:43:26 PM 28.2353 -83.1636 348° North 358 412 40,000  Level Jacksonville Center
Wed 06:44:27 PM 28.3333 -83.1850 349° North 352 405 40,000  Level Jacksonville Center
Wed 06:45:27 PM 28.4417 -83.2042 351° North 352 405 40,000  Level Jacksonville Center
Wed 06:46:27 PM 28.5378 -83.2258 349° North 352 405 40,000  Level Jacksonville Center
Wed 06:47:25 PM 28.6378 -83.2497 348° North 352 405 40,000  Level Jacksonville Center
Wed 06:48:25 PM 28.7358 -83.2714 349° North 352 405 40,000  Level Jacksonville Center
Wed 06:49:25 PM 28.8358 -83.2908 350° North 352 405 40,000  Level Jacksonville Center
Wed 06:50:27 PM 28.9339 -83.3150 348° North 352 405 40,000  Level Jacksonville Center
Wed 06:51:25 PM 29.0319 -83.3367 349° North 352 405 40,000  Level Jacksonville Center
Wed 06:52:25 PM 29.1361 -83.3586 350° North 352 405 40,000  Level Jacksonville Center
Wed 06:53:26 PM 29.2322 -83.3781 350° North 352 405 40,000  Level Jacksonville Center
Wed 06:54:25 PM 29.3303 -83.4047 347° North 352 405 40,000  Level Jacksonville Center
Wed 06:55:25 PM 29.4303 -83.4267 349° North 352 405 40,000  Level Jacksonville Center
Wed 06:56:26 PM 29.5306 -83.4486 349° North 352 405 40,000  Level Jacksonville Center
Wed 06:57:27 PM 29.6283 -83.4708 349° North 352 405 40,000  Level Jacksonville Center
Wed 06:58:25 PM 29.7286 -83.4953 348° North 352 405 40,000  Level Jacksonville Center
Wed 06:59:26 PM 29.8267 -83.5150 350° North 352 405 40,000  Level Jacksonville Center
Wed 07:00:26 PM 29.9267 -83.5397 348° North 352 405 40,000  Level Jacksonville Center
Wed 07:01:27 PM 30.0247 -83.5594 350° North 352 405 40,000  Level Jacksonville Center
Wed 07:02:27 PM 30.1247 -83.5817 349° North 352 405 40,000  Level Jacksonville Center
Wed 07:03:25 PM 30.2228 -83.6042 349° North 352 405 40,000  Level Jacksonville Center
Wed 07:04:25 PM 30.3228 -83.6267 349° North 357 411 40,000  Level Jacksonville Center
Wed 07:05:25 PM 30.4208 -83.6489 349° North 357 411 40,000  Level Jacksonville Center
Wed 07:06:25 PM 30.5208 -83.6714 349° North 357 411 40,000  Level Jacksonville Center
Wed 07:07:25 PM 30.6044 -83.6914 348° North 351 404 40,000  Level Jacksonville Center
Wed 07:08:25 PM 30.7044 -83.7139 349° North 351 404 40,000  Level Jacksonville Center
Wed 07:09:25 PM 30.8025 -83.7367 349° North 356 410 40,000  Level Jacksonville Center
Wed 07:10:25 PM 30.9044 -83.7617 348° North 356 410 40,000  Level Jacksonville Center
Wed 07:11:25 PM 31.0108 -83.7844 350° North 356 410 40,000  Level Jacksonville Center
Wed 07:13:27 PM 31.2039 -83.8325 348° North 369 425 40,000  Level Atlanta Center
Wed 07:14:27 PM 31.3042 -83.8567 348° North 369 425 40,000  Level Atlanta Center
Wed 07:15:27 PM 31.4022 -83.8783 349° North 369 425 40,000  Level Atlanta Center
Wed 07:16:27 PM 31.5003 -83.9025 348° North 363 418 40,000  Level Atlanta Center
Wed 07:17:27 PM 31.6089 -83.9317 347° North 363 418 40,000  Level Atlanta Center
Wed 07:18:27 PM 31.7131 -83.9558 349° North 363 418 40,000  Level Atlanta Center
Wed 07:19:27 PM 31.8133 -83.9778 349° North 368 423 40,000  Level Atlanta Center
Wed 07:20:27 PM 31.9136 -83.9997 349° North 373 429 40,000  Level Atlanta Center
Wed 07:21:27 PM 32.0158 -84.0242 349° North 373 429 40,000  Level Atlanta Center
Wed 07:22:27 PM 32.1139 -84.0461 349° North 366 421 40,000  Level Atlanta Center
Wed 07:23:27 PM 32.2161 -84.0708 348° North 371 427 40,000  Level Atlanta Center
Wed 07:24:27 PM 32.3164 -84.0928 350° North 371 427 40,000  Level Atlanta Center
Wed 07:25:27 PM 32.4167 -84.1175 348° North 371 427 40,000  Level Atlanta Center
Wed 07:26:27 PM 32.5208 -84.1422 349° North 371 427 40,000  Level Atlanta Center
Wed 07:27:27 PM 32.6189 -84.1669 348° North 371 427 40,000  Level Atlanta Center
Wed 07:28:27 PM 32.7214 -84.1894 350° North 371 427 40,000  Level Atlanta Center
Wed 07:29:27 PM 32.8214 -84.2167 347° North 371 427 40,000  Level Atlanta Center
Wed 07:30:27 PM 32.9217 -84.2442 347° North 371 427 40,000  Level Atlanta Center
Wed 07:31:27 PM 33.0239 -84.2667 350° North 371 427 40,000  Level Atlanta Center
Wed 07:32:27 PM 33.1261 -84.2917 348° North 371 427 40,000  Level Atlanta Center
Wed 07:33:27 PM 33.2178 -84.3119 350° North 371 427 40,000  Level Atlanta Center
Wed 07:34:27 PM 33.3181 -84.3397 347° North 371 427 40,000  Level Atlanta Center
Wed 07:35:27 PM 33.4203 -84.3622 350° North 371 427 40,000  Level Atlanta Center
Wed 07:36:27 PM 33.5225 -84.3878 348° North 369 425 40,000  Level Atlanta Center
Wed 07:37:27 PM 33.6372 -84.4156 349° North 374 430 40,000  Level Atlanta Center
Wed 07:38:27 PM 33.7372 -84.4411 348° North 374 430 40,000  Level Atlanta Center
Wed 07:39:27 PM 33.8394 -84.4639 350° North 374 430 40,000  Level Atlanta Center
Wed 07:40:27 PM 33.9417 -84.4894 348° North 374 430 40,000  Level Atlanta Center
Wed 07:41:27 PM 34.0458 -84.5175 347° North 368 423 40,000  Level Atlanta Center
Wed 07:42:27 PM 34.1417 -84.5383 350° North 377 434 40,000  Level Atlanta Center
Wed 07:43:27 PM 34.2439 -84.5639 348° North 383 441 40,000  Level Atlanta Center
Wed 07:44:27 PM 34.3483 -84.5897 348° North 377 434 40,000  Level Atlanta Center
Wed 07:45:27 PM 34.4503 -84.6131 349° North 369 425 40,000  Level Atlanta Center
Wed 07:46:27 PM 34.5525 -84.6392 348° North 369 425 40,000  Level Atlanta Center
Wed 07:47:27 PM 34.6650 -84.6675 348° North 374 430 40,000  Level Atlanta Center
Wed 07:48:27 PM 34.7525 -84.6961 345° North 369 425 40,000  Level Atlanta Center
Wed 07:49:27 PM 34.8631 -84.7247 348° North 369 425 40,000  Level Atlanta Center
Wed 07:50:27 PM 34.9589 -84.7458 350° North 374 430 40,000  Level Atlanta Center
Wed 07:51:27 PM 35.0608 -84.7722 348° North 374 430 40,000  Level Atlanta Center
Wed 07:52:27 PM 35.1608 -84.7983 348° North 374 430 40,000  Level Atlanta Center
Wed 07:53:27 PM 35.2650 -84.8247 348° North 374 430 40,000  Level Atlanta Center
Wed 07:54:27 PM 35.3672 -84.8511 348° North 374 430 40,000  Level Atlanta Center
Wed 07:55:27 PM 35.4692 -84.8778 348° North 374 430 40,000  Level Atlanta Center
Wed 07:56:27 PM 35.5733 -84.9017 349° North 374 430 40,000  Level Atlanta Center
Wed 07:58:29 PM 35.7783 -84.9547 348° North 378 435 40,000  Level Indianapolis Center
Wed 07:59:31 PM 35.9011 -84.9869 348° North 378 435 40,000  Level Indianapolis Center
Wed 08:00:33 PM 35.9958 -85.0114 348° North 378 435 40,000  Level Indianapolis Center
Wed 08:01:35 PM 36.0978 -85.0378 348° North 373 429 40,000  Level Indianapolis Center
Wed 08:02:37 PM 36.1989 -85.0686 346° North 372 428 40,000  Level Indianapolis Center
Wed 08:03:38 PM 36.2892 -85.1206 335° Northwest 359 413 40,000  Level Indianapolis Center
Wed 08:04:40 PM 36.3964 -85.1808 336° Northwest 357 411 40,000  Level Indianapolis Center
Wed 08:05:42 PM 36.4872 -85.2308 336° Northwest 357 411 40,000 -435 Level Indianapolis Center
Wed 08:06:44 PM 36.5769 -85.2800 336° Northwest 355 409 39,100 -871 Descending Indianapolis Center
Wed 08:07:46 PM 36.6661 -85.3289 336° Northwest 354 407 38,200 -927 Descending Indianapolis Center
Wed 08:08:47 PM 36.7564 -85.3761 337° Northwest 352 405 37,200 -976 Descending Indianapolis Center
Wed 08:09:49 PM 36.8475 -85.4264 336° Northwest 353 406 36,200 -968 Descending Indianapolis Center
Wed 08:10:51 PM 36.9389 -85.4767 336° Northwest 354 407 35,200 -1,016 Descending Indianapolis Center
Wed 08:11:53 PM 37.0464 -85.5169 343° North 374 430 34,100 -1,016 Descending Indianapolis Center
Wed 08:12:55 PM 37.1575 -85.5267 356° North 393 452 33,100 -976 Descending Indianapolis Center
Wed 08:13:56 PM 37.2675 -85.5347 357° North 393 452 32,100 -537 Descending Indianapolis Center
Wed 08:14:58 PM 37.3847 -85.5447 356° North 406 467 32,000 -48 Descending Indianapolis Center
Wed 08:16:00 PM 37.5000 -85.5514 357° North 410 472 32,000  Level Indianapolis Center
Wed 08:17:02 PM 37.6122 -85.5611 356° North 409 471 32,000  Level Indianapolis Center
Wed 08:18:03 PM 37.7486 -85.5719 356° North 409 471 32,000  Level Indianapolis Center
Wed 08:19:05 PM 37.8631 -85.5803 357° North 409 471 32,000  Level Indianapolis Center
Wed 08:20:07 PM 37.9761 -85.5900 356° North 409 471 32,000  Level Indianapolis Center
Wed 08:21:08 PM 38.0872 -85.5986 357° North 405 466 32,000 -537 Level Indianapolis Center
Wed 08:22:10 PM 38.2025 -85.6064 357° North 408 470 30,900 -1,500 Descending Indianapolis Center
Wed 08:23:12 PM 38.3128 -85.6147 357° North 402 463 28,900 -1,935 Descending Indianapolis Center
Wed 08:24:14 PM 38.4222 -85.6239 356° North 394 453 26,900 -1,951 Descending Indianapolis Center
Wed 08:25:15 PM 38.5344 -85.6322 357° North 397 457 24,900 -1,659 Descending Indianapolis Center
Wed 08:26:17 PM 38.6556 -85.6461 355° North 394 453 23,500 -1,790 Descending Indianapolis Center
Wed 08:27:19 PM 38.7567 -85.6661 351° North 376 433 21,200 -2,293 Descending Indianapolis Center
Wed 08:28:20 PM 38.8547 -85.6839 352° North 364 419 18,800 -2,244 Descending Indianapolis Center
Wed 08:29:22 PM 38.9469 -85.7000 352° North 344 396 16,600 -2,032 Descending Indianapolis Center
Wed 08:30:24 PM 39.0533 -85.7194 352° North 327 376 14,600 -1,694 Descending Indianapolis Center
Wed 08:31:26 PM 39.1419 -85.7356 352° North 327 376 13,100 -1,610 Descending Indianapolis Center
Wed 08:32:27 PM 39.2292 -85.7517 352° North 324 373 11,300 -1,512 Descending Indianapolis Center
Wed 08:33:29 PM 39.3158 -85.7700 351° North 320 368 10,000 -629 Descending Indianapolis Center
Wed 08:34:31 PM 39.3717 -85.8383 317° Northwest 288 331 10,000 -97 Level Indianapolis Center
Wed 08:35:33 PM 39.4275 -85.9039 318° Northwest 277 319 9,800 -829 Descending Indianapolis Center
Wed 08:36:34 PM 39.4781 -85.9644 317° Northwest 258 297 8,300 -1,610 Descending Indianapolis Center
Wed 08:37:36 PM 39.5347 -86.0303 318° Northwest 234 269 6,500 -1,597 Descending Indianapolis Center
Wed 08:38:38 PM 39.5875 -86.0756 327° Northwest 231 266 5,000 -1,220 Descending Indianapolis Center
Wed 08:39:39 PM 39.6372 -86.1203 325° Northwest 227 261 4,000 -488 Descending Indianapolis Center
Wed 08:40:41 PM 39.6842 -86.1622 325° Northwest 217 250 4,000 -290 Level Indianapolis Center
Wed 08:41:43 PM 39.7297 -86.2028 326° Northwest 209 241 3,400 -683 Descending Indianapolis Center
Wed 08:42:44 PM 39.7764 -86.2464 324° Northwest 190 219 2,600 -537 Descending Indianapolis Center
Wed 08:43:46 PM 39.8158 -86.2511 355° North 170 196 2,300 -435 Descending Indianapolis Center
Wed 08:44:48 PM 39.8503 -86.2339 21° North 161 185 1,700 -581 Descending Indianapolis Center

Login

Don't have an account? Register now (free) for customized features, flight alerts, and more!